AirNav   Pilot Hours Calculator
 
 1214 users online  

6KY3 Flying C Farms Airport
Shelbyville, Kentucky, USA

GOING TO SHELBYVILLE?


FAA INFORMATION EFFECTIVE 26 MARCH 2020

Location

FAA Identifier: 6KY3
Lat/Long: 38-19-43.0000N 085-12-51.0000W
38-19.716667N 085-12.850000W
38.3286111,-85.2141667
(estimated)
Elevation: 850 ft. / 259 m (estimated)
From city: 9 miles N of SHELBYVILLE, KY
Time zone: UTC -4 (UTC -5 during Standard Time)
Zip code: 40019

Airport Operations

Airport use: Private use. Permission required prior to landing
Activation date: 04/2007
Control tower: no
ARTCC: INDIANAPOLIS CENTER
FSS: LOUISVILLE FLIGHT SERVICE STATION
Attendance: UNATTENDED
CALL 502-558-4980 FOR SERVICE.
Wind indicator: yes
Segmented circle: no

Airport Communications

WX ASOS at FFT (17 nm SE): 119.275 (502-227-5087)

Nearby radio navigation aids

VOR radial/distance  VOR name  Freq  Var
FFTr304/(16.9)FRANKFORT VOR109.4003W
IIUr051/21.8LOUISVILLE VORTAC114.8001E

Airport Services

Runway Information

Runway 1/19

Dimensions: 2250 x 75 ft. / 686 x 23 m
Surface: turf
Operational restrictions: MARKED WITH ORANGE CONES.
RUNWAY 1  RUNWAY 19
Traffic pattern: leftleft

Airport Ownership and Management from official FAA records

Ownership: Privately-owned
Owner: CATHY P COREY
1430 CLORE JACKSON ROAD
SHELBYVILLE, KY 40065
Phone (502) 558-4980
Manager: CATHY P COREY
1430 CLORE JACKSON ROAD
SHELBYVILLE, KY 40065
Phone (502) 558-4980

Airport Operational Statistics

Aircraft based on the field: 1
Single engine airplanes: 1
    

Additional Remarks

FOR CD CTC LOUISVILLE APCH AT 502-375-7499

Instrument Procedures

There are no published instrument procedures at 6KY3.

Some nearby airports with instrument procedures:

KFFT - Capital City Airport (17 nm SE)
KLOU - Bowman Field Airport (22 nm W)
KJVY - Clark Regional Airport (25 nm W)
KSDF - Louisville Muhammad Ali International Airport (26 nm W)
KIMS - Madison Municipal Airport (28 nm NW)
 
Loc | Ops | Rwys | IFR | FBO | Links
Com | Nav | Svcs | Stats | Notes
Aerial photo
No photo
 
Sectional chart

 
Airport distance calculator
Flying to Flying C Farms Airport? Find the distance to fly.

From to 6KY3

Sunrise and sunset
Times for 30-Mar-2020
 Local
(UTC-4)
 Zulu
(UTC)
Morning civil twilight07:0211:02
Sunrise07:2811:28
Sunset20:0200:02
Evening civil twilight20:2800:28

Current date and time
Zulu (UTC)  30-Mar-2020 20:02:00
Local (UTC-4)  30-Mar-2020 16:02:00
 
METAR
KFFT 
17nm SE 
301953Z AUTO 30013G18KT 10SM CLR 18/M01 A3010 RMK AO2 SLP188 T01831006
KLOU 
22nm W 
301953Z 30012G20KT 10SM CLR 17/M01 A3011 RMK AO2 SLP194 T01721006
KJVY 
25nm W 
301955Z AUTO 31012G15KT 10SM CLR 17/00 A3012 RMK AO2 T01701005
KSDF 
26nm W 
301956Z 31007KT 10SM OVC210 18/M02 A3011 RMK AO2 SLP194 T01831017
KIMS 
28nm NW 
301955Z AUTO 29010G21KT 249V319 10SM CLR 16/00 A3013 RMK AO1
KBRY 
34nm SW 
301955Z AUTO 32008KT 277V337 10SM CLR 18/M02 A3009 RMK AO1
KLEX 
34nm SE 
301954Z 26011G21KT 10SM CLR 17/01 A3011 RMK AO2 SLP194 T01670006
TAF
KSDF 
26nm W 
301730Z 3018/3124 30012G18KT P6SM BKN250 FM302200 34006KT P6SM OVC250 FM311000 03007KT P6SM OVC100 FM311300 04007KT P6SM VCSH OVC040 FM311600 03006KT P6SM VCSH OVC025 FM312100 35011KT P6SM OVC050
NOTAMs
Click for the latest NOTAMs
NOTAMs are issued by the DoD/FAA and will open in a separate window not controlled by AirNav.

 

 
 

Would you like to see your business listed on this page?

 If your business provides an interesting product or service to pilots, flight crews, aircraft, or users of the Flying C Farms Airport, you should consider listing it here.  To start the listing process, click on the button below
 
Add a business
 

Other Pages about Flying C Farms Airport

Update a link
 
Copyright © AirNav, LLC. All rights reserved. Privacy Policy  Contact